Aeroporto :
LOGIN :

Iscrizione | Disclaimer

   EN    FR    IT 

 










Sommario :    VFR   VFR Marginale   IFR   IFR Intensivo   IFR Molto Intensivo
Visibilità : 
Base nubi : 
>= 8 km
>= 3000ft
5 / 8 km
1000 / 3000 ft
1500m / 5 km
500 / 1000 ft
800 / 1500m
200 / 500 ft
< 800m
< 200 ft
Simboli :   Temporali  Nebbia  Neve Forte  Precipitazioni Forti  Vento > 20 kt
SIGMETs :   Varie  Temporali  Ghiacco  Turbolenza  Onda orograficha  Ceneri Vulcaniche







- Altitudine del aeroporto : 33 ft
- Codice IATA : MHZ


EGUN - RAF Mildenhall

ULTIMO METAR :
  • 260556Z AUTO 17003KT 9999 CLR 07/07 A2977 RMK AO2 SLP084 T00720072 10093 20052 52017 $

METARs OBSOLETI :
  • 260456Z AUTO 16003KT 9999 CLR 06/06 A2976 RMK AO2 SLP081 T00550055 .
  • 260356Z AUTO 17006KT 9999 CLR 06/06 A2974 RMK AO2 SLP074 T00630063 .

TAF TAF EGUN
Valido dal 26 a 04 ore il 27 a 10 ore UTC


260400Z 2604/2710 18009KT 9999 SKC QNH2971INS
BECMG 2608/2609 20010G20KT 8000 -SHRA VCTS BKN030CB QNH2973INS
BECMG 2618/2619 20012KT 9999 NSW BKN020 QNH2970INS
BECMG 2622/2623 19015G25KT 8000 -SHRA OVC015 510009 QNH2960INS
BECMG 2703/2704 20025G35KT 5000 SHRA BKN010 OVC020 520009 QNH2951INS TX17/2612Z TN06/2605Z
Nessun NOTAM noto per questo aeroporto.



MetMap, La meteo Aeronautica in un colpo d'occhio ! - Copyright ORBIFLY Dicembre 2007 - Disclaimer

ORBIFLY MET'MAP TEAM :

Programmazione e sviluppo : Alexandra Zaïnal
Concezione e sviluppo : Baudouin d'Aumeries
Co-Programmazione e sviluppo : Marc-Olivier Méhu
Supporto tecnico e logistico : Manuel Goepfert
Aiuto per la traduzione : Arnaldo La Scala

Contatto : metmap@orbifly.com




FONTI E CREDITI :

   NOAA